Florence, Kentucky
Current Conditions -  °F | °C
As of 7:52 AM on Thursday 27 Nov 2014 (Local Time) from KCVG Reporting Station
Overcast Overcast  
Wind Chill: 19°   Ceiling: 2800
Heat Index: 29°   Visibility: 8mi
Dew Point: 21°   Wind: 12mph
Humidity: 72%   Direction: 300°WNW
Pressure: 30.21"   Gusts: NA
Location:  39°N, 84.63°W
Report Text: KCVG 271252Z 30010KT 8SM OVC028 M02/M06 A3021 RMK AO2 SLP235 T10171061
Loading
Personal Weather Stations






























Interactive Weather Map New forecast layout! Learn more

10-Day Weather Forecast

Advertisements
Track Severe Weather on mobile